sensor_id;sensor_type;location;lat;lon;timestamp;temperature;humidity
66594;DHT22;53450;42.584;23.366;2023-06-10T00:02:03;15.45;85.72
66594;DHT22;53450;42.584;23.366;2023-06-10T00:04:29;15.31;85.66
66594;DHT22;53450;42.584;23.366;2023-06-10T00:06:55;15.38;86.03
66594;DHT22;53450;42.584;23.366;2023-06-10T00:09:20;15.34;86.34
66594;DHT22;53450;42.584;23.366;2023-06-10T00:11:49;15.47;86.12
66594;DHT22;53450;42.584;23.366;2023-06-10T00:14:14;15.60;85.61
66594;DHT22;53450;42.584;23.366;2023-06-10T00:17:06;15.70;85.38
66594;DHT22;53450;42.584;23.366;2023-06-10T00:19:59;15.77;84.93
66594;DHT22;53450;42.584;23.366;2023-06-10T00:22:25;15.79;84.85
66594;DHT22;53450;42.584;23.366;2023-06-10T00:24:55;15.71;84.66
66594;DHT22;53450;42.584;23.366;2023-06-10T00:27:22;15.71;84.59
66594;DHT22;53450;42.584;23.366;2023-06-10T00:29:47;15.64;84.92
66594;DHT22;53450;42.584;23.366;2023-06-10T00:32:39;15.60;85.46
66594;DHT22;53450;42.584;23.366;2023-06-10T00:35:05;15.66;85.52
66594;DHT22;53450;42.584;23.366;2023-06-10T00:37:32;15.70;85.50
66594;DHT22;53450;42.584;23.366;2023-06-10T00:40:00;15.57;85.77
66594;DHT22;53450;42.584;23.366;2023-06-10T00:42:25;15.53;86.07
66594;DHT22;53450;42.584;23.366;2023-06-10T00:44:51;15.57;85.98
66594;DHT22;53450;42.584;23.366;2023-06-10T00:47:17;15.40;86.56
66594;DHT22;53450;42.584;23.366;2023-06-10T00:49:44;15.43;86.74
66594;DHT22;53450;42.584;23.366;2023-06-10T00:52:11;15.32;86.94
66594;DHT22;53450;42.584;23.366;2023-06-10T00:54:37;15.32;87.02
66594;DHT22;53450;42.584;23.366;2023-06-10T00:57:04;15.45;86.91
66594;DHT22;53450;42.584;23.366;2023-06-10T00:59:30;15.50;86.25
66594;DHT22;53450;42.584;23.366;2023-06-10T01:01:56;15.46;85.98
66594;DHT22;53450;42.584;23.366;2023-06-10T01:04:22;15.47;86.15
66594;DHT22;53450;42.584;23.366;2023-06-10T01:10:20;15.38;86.16
66594;DHT22;53450;42.584;23.366;2023-06-10T01:13:07;15.39;86.03
66594;DHT22;53450;42.584;23.366;2023-06-10T01:15:34;15.39;85.62
66594;DHT22;53450;42.584;23.366;2023-06-10T01:18:08;15.34;85.78
66594;DHT22;53450;42.584;23.366;2023-06-10T01:20:41;15.32;85.66
66594;DHT22;53450;42.584;23.366;2023-06-10T01:23:10;15.28;85.77
66594;DHT22;53450;42.584;23.366;2023-06-10T01:25:40;15.02;86.19
66594;DHT22;53450;42.584;23.366;2023-06-10T01:28:25;15.02;86.32
66594;DHT22;53450;42.584;23.366;2023-06-10T01:33:30;15.21;86.20
66594;DHT22;53450;42.584;23.366;2023-06-10T01:35:57;15.35;86.01
66594;DHT22;53450;42.584;23.366;2023-06-10T01:38:25;15.36;86.15
66594;DHT22;53450;42.584;23.366;2023-06-10T01:40:53;15.50;86.05
66594;DHT22;53450;42.584;23.366;2023-06-10T01:43:20;15.45;85.83
66594;DHT22;53450;42.584;23.366;2023-06-10T01:45:46;15.31;86.37
66594;DHT22;53450;42.584;23.366;2023-06-10T01:48:12;15.08;86.75
66594;DHT22;53450;42.584;23.366;2023-06-10T01:50:37;15.04;86.88
66594;DHT22;53450;42.584;23.366;2023-06-10T01:53:04;15.21;86.65
66594;DHT22;53450;42.584;23.366;2023-06-10T01:55:31;15.34;86.44
66594;DHT22;53450;42.584;23.366;2023-06-10T01:57:56;15.40;85.76
66594;DHT22;53450;42.584;23.366;2023-06-10T02:00:23;15.49;85.49
66594;DHT22;53450;42.584;23.366;2023-06-10T02:03:13;15.49;85.23
66594;DHT22;53450;42.584;23.366;2023-06-10T02:06:04;15.32;85.73
66594;DHT22;53450;42.584;23.366;2023-06-10T02:08:30;15.31;85.79
66594;DHT22;53450;42.584;23.366;2023-06-10T02:10:59;15.21;86.16
66594;DHT22;53450;42.584;23.366;2023-06-10T02:13:27;15.01;86.48
66594;DHT22;53450;42.584;23.366;2023-06-10T02:15:53;15.15;86.38
66594;DHT22;53450;42.584;23.366;2023-06-10T02:18:44;15.24;85.53
66594;DHT22;53450;42.584;23.366;2023-06-10T02:21:13;15.22;85.64
66594;DHT22;53450;42.584;23.366;2023-06-10T02:23:39;15.24;85.68
66594;DHT22;53450;42.584;23.366;2023-06-10T02:26:05;15.19;85.89
66594;DHT22;53450;42.584;23.366;2023-06-10T02:28:31;15.16;86.09
66594;DHT22;53450;42.584;23.366;2023-06-10T02:30:58;15.06;86.45
66594;DHT22;53450;42.584;23.366;2023-06-10T02:33:25;14.98;86.59
66594;DHT22;53450;42.584;23.366;2023-06-10T02:35:50;15.11;86.46
66594;DHT22;53450;42.584;23.366;2023-06-10T02:38:16;15.12;86.35
66594;DHT22;53450;42.584;23.366;2023-06-10T02:41:07;15.21;85.29
66594;DHT22;53450;42.584;23.366;2023-06-10T02:43:58;15.19;85.11
66594;DHT22;53450;42.584;23.366;2023-06-10T02:46:23;15.16;85.35
66594;DHT22;53450;42.584;23.366;2023-06-10T02:48:50;15.25;85.12
66594;DHT22;53450;42.584;23.366;2023-06-10T02:51:20;15.35;84.91
66594;DHT22;53450;42.584;23.366;2023-06-10T02:53:48;15.39;84.17
66594;DHT22;53450;42.584;23.366;2023-06-10T02:56:16;15.45;84.54
66594;DHT22;53450;42.584;23.366;2023-06-10T02:58:42;15.45;84.66
66594;DHT22;53450;42.584;23.366;2023-06-10T03:01:09;15.43;84.59
66594;DHT22;53450;42.584;23.366;2023-06-10T03:03:53;15.42;84.66
66594;DHT22;53450;42.584;23.366;2023-06-10T03:06:21;15.45;84.81
66594;DHT22;53450;42.584;23.366;2023-06-10T03:08:49;15.49;84.67
66594;DHT22;53450;42.584;23.366;2023-06-10T03:11:18;15.47;84.49
66594;DHT22;53450;42.584;23.366;2023-06-10T03:13:45;15.45;84.58
66594;DHT22;53450;42.584;23.366;2023-06-10T03:16:14;15.46;84.78
66594;DHT22;53450;42.584;23.366;2023-06-10T03:18:41;15.46;84.41
66594;DHT22;53450;42.584;23.366;2023-06-10T03:21:07;15.42;84.82
66594;DHT22;53450;42.584;23.366;2023-06-10T03:23:34;15.36;85.23
66594;DHT22;53450;42.584;23.366;2023-06-10T03:26:01;15.40;85.49
66594;DHT22;53450;42.584;23.366;2023-06-10T03:28:28;15.42;85.25
66594;DHT22;53450;42.584;23.366;2023-06-10T03:30:54;15.49;84.95
66594;DHT22;53450;42.584;23.366;2023-06-10T03:33:22;15.55;84.97
66594;DHT22;53450;42.584;23.366;2023-06-10T03:35:48;15.64;84.53
66594;DHT22;53450;42.584;23.366;2023-06-10T03:38:14;15.67;84.04
66594;DHT22;53450;42.584;23.366;2023-06-10T03:40:40;15.56;83.05
66594;DHT22;53450;42.584;23.366;2023-06-10T03:43:06;15.42;83.05
66594;DHT22;53450;42.584;23.366;2023-06-10T03:45:32;15.28;84.09
66594;DHT22;53450;42.584;23.366;2023-06-10T03:47:58;15.21;85.05
66594;DHT22;53450;42.584;23.366;2023-06-10T03:50:29;15.39;85.02
66594;DHT22;53450;42.584;23.366;2023-06-10T03:52:55;15.52;84.87
66594;DHT22;53450;42.584;23.366;2023-06-10T03:55:24;15.55;84.80
66594;DHT22;53450;42.584;23.366;2023-06-10T03:57:50;15.59;84.45
66594;DHT22;53450;42.584;23.366;2023-06-10T04:00:20;15.63;84.30
66594;DHT22;53450;42.584;23.366;2023-06-10T04:02:47;15.63;83.91
66594;DHT22;53450;42.584;23.366;2023-06-10T04:05:23;15.53;83.98
66594;DHT22;53450;42.584;23.366;2023-06-10T04:08:14;15.46;84.99
66594;DHT22;53450;42.584;23.366;2023-06-10T04:11:05;15.49;85.15
66594;DHT22;53450;42.584;23.366;2023-06-10T04:13:30;15.66;85.56
66594;DHT22;53450;42.584;23.366;2023-06-10T04:15:58;15.71;85.41
66594;DHT22;53450;42.584;23.366;2023-06-10T04:18:24;15.69;85.47
66594;DHT22;53450;42.584;23.366;2023-06-10T04:20:53;15.53;86.31
66594;DHT22;53450;42.584;23.366;2023-06-10T04:23:19;15.59;86.59
66594;DHT22;53450;42.584;23.366;2023-06-10T04:25:45;15.55;86.53
66594;DHT22;53450;42.584;23.366;2023-06-10T04:28:12;15.32;86.52
66594;DHT22;53450;42.584;23.366;2023-06-10T04:30:38;15.18;86.78
66594;DHT22;53450;42.584;23.366;2023-06-10T04:33:05;15.36;86.72
66594;DHT22;53450;42.584;23.366;2023-06-10T04:35:34;15.64;86.36
66594;DHT22;53450;42.584;23.366;2023-06-10T04:38:02;15.80;85.87
66594;DHT22;53450;42.584;23.366;2023-06-10T04:40:29;15.87;85.89
66594;DHT22;53450;42.584;23.366;2023-06-10T04:42:55;15.89;85.91
66594;DHT22;53450;42.584;23.366;2023-06-10T04:45:21;15.94;85.75
66594;DHT22;53450;42.584;23.366;2023-06-10T04:47:46;15.98;85.69
66594;DHT22;53450;42.584;23.366;2023-06-10T04:50:12;16.03;85.64
66594;DHT22;53450;42.584;23.366;2023-06-10T04:52:38;16.11;85.37
66594;DHT22;53450;42.584;23.366;2023-06-10T04:55:05;16.18;85.45
66594;DHT22;53450;42.584;23.366;2023-06-10T04:57:31;16.14;85.15
66594;DHT22;53450;42.584;23.366;2023-06-10T04:59:56;16.05;85.36
66594;DHT22;53450;42.584;23.366;2023-06-10T05:02:22;16.13;85.60
66594;DHT22;53450;42.584;23.366;2023-06-10T05:04:47;16.21;85.76
66594;DHT22;53450;42.584;23.366;2023-06-10T05:07:13;16.36;85.22
66594;DHT22;53450;42.584;23.366;2023-06-10T05:09:38;16.31;85.12
66594;DHT22;53450;42.584;23.366;2023-06-10T05:12:05;16.21;84.97
66594;DHT22;53450;42.584;23.366;2023-06-10T05:14:30;16.18;85.23
66594;DHT22;53450;42.584;23.366;2023-06-10T05:16:56;16.14;85.25
66594;DHT22;53450;42.584;23.366;2023-06-10T05:19:22;16.01;85.42
66594;DHT22;53450;42.584;23.366;2023-06-10T05:21:48;16.07;85.62
66594;DHT22;53450;42.584;23.366;2023-06-10T05:24:13;16.26;85.08
66594;DHT22;53450;42.584;23.366;2023-06-10T05:26:39;16.55;84.47
66594;DHT22;53450;42.584;23.366;2023-06-10T05:29:07;16.72;83.77
66594;DHT22;53450;42.584;23.366;2023-06-10T05:31:33;16.75;84.00
66594;DHT22;53450;42.584;23.366;2023-06-10T05:33:58;16.75;83.62
66594;DHT22;53450;42.584;23.366;2023-06-10T05:36:24;16.79;83.67
66594;DHT22;53450;42.584;23.366;2023-06-10T05:38:53;16.61;84.01
66594;DHT22;53450;42.584;23.366;2023-06-10T05:41:18;16.42;84.36
66594;DHT22;53450;42.584;23.366;2023-06-10T05:43:44;16.61;84.30
66594;DHT22;53450;42.584;23.366;2023-06-10T05:46:10;16.83;83.33
66594;DHT22;53450;42.584;23.366;2023-06-10T05:48:35;16.87;82.87
66594;DHT22;53450;42.584;23.366;2023-06-10T05:51:01;16.99;83.05
66594;DHT22;53450;42.584;23.366;2023-06-10T05:53:27;17.17;82.78
66594;DHT22;53450;42.584;23.366;2023-06-10T05:56:18;17.31;82.09
66594;DHT22;53450;42.584;23.366;2023-06-10T05:59:09;17.48;81.77
66594;DHT22;53450;42.584;23.366;2023-06-10T06:01:35;17.62;80.95
66594;DHT22;53450;42.584;23.366;2023-06-10T06:04:01;17.60;80.58
66594;DHT22;53450;42.584;23.366;2023-06-10T06:06:27;17.65;80.41
66594;DHT22;53450;42.584;23.366;2023-06-10T06:08:52;17.77;80.91
66594;DHT22;53450;42.584;23.366;2023-06-10T06:11:18;17.77;82.34
66594;DHT22;53450;42.584;23.366;2023-06-10T06:13:43;17.88;81.99
66594;DHT22;53450;42.584;23.366;2023-06-10T06:16:09;17.52;83.60
66594;DHT22;53450;42.584;23.366;2023-06-10T06:18:34;17.57;83.18
66594;DHT22;53450;42.584;23.366;2023-06-10T06:21:00;17.57;83.95
66594;DHT22;53450;42.584;23.366;2023-06-10T06:23:26;17.48;83.88
66594;DHT22;53450;42.584;23.366;2023-06-10T06:25:51;17.41;84.87
66594;DHT22;53450;42.584;23.366;2023-06-10T06:28:17;17.23;85.17
66594;DHT22;53450;42.584;23.366;2023-06-10T06:30:44;17.10;85.95
66594;DHT22;53450;42.584;23.366;2023-06-10T06:33:10;17.28;85.41
66594;DHT22;53450;42.584;23.366;2023-06-10T06:35:35;17.35;85.20
66594;DHT22;53450;42.584;23.366;2023-06-10T06:38:03;17.42;85.50
66594;DHT22;53450;42.584;23.366;2023-06-10T06:40:29;17.31;85.36
66594;DHT22;53450;42.584;23.366;2023-06-10T06:42:55;17.37;85.17
66594;DHT22;53450;42.584;23.366;2023-06-10T06:45:41;17.31;84.48
66594;DHT22;53450;42.584;23.366;2023-06-10T06:48:32;17.27;84.70
66594;DHT22;53450;42.584;23.366;2023-06-10T06:51:01;17.28;84.66
66594;DHT22;53450;42.584;23.366;2023-06-10T06:53:27;17.28;85.55
66594;DHT22;53450;42.584;23.366;2023-06-10T06:55:53;17.24;85.73
66594;DHT22;53450;42.584;23.366;2023-06-10T06:58:18;17.02;86.27
66594;DHT22;53450;42.584;23.366;2023-06-10T07:00:44;16.92;86.71
66594;DHT22;53450;42.584;23.366;2023-06-10T07:03:10;17.10;86.34
66594;DHT22;53450;42.584;23.366;2023-06-10T07:05:35;17.00;85.12
66594;DHT22;53450;42.584;23.366;2023-06-10T07:08:01;17.00;84.87
66594;DHT22;53450;42.584;23.366;2023-06-10T07:10:27;17.32;84.68
66594;DHT22;53450;42.584;23.366;2023-06-10T07:12:53;17.55;83.94
66594;DHT22;53450;42.584;23.366;2023-06-10T07:15:19;17.72;83.45
66594;DHT22;53450;42.584;23.366;2023-06-10T07:17:45;17.78;82.67
66594;DHT22;53450;42.584;23.366;2023-06-10T07:20:36;17.89;83.02
66594;DHT22;53450;42.584;23.366;2023-06-10T07:23:26;18.27;83.04
66594;DHT22;53450;42.584;23.366;2023-06-10T07:25:52;18.47;81.64
66594;DHT22;53450;42.584;23.366;2023-06-10T07:28:17;18.83;81.31
66594;DHT22;53450;42.584;23.366;2023-06-10T07:30:43;18.75;80.76
66594;DHT22;53450;42.584;23.366;2023-06-10T07:33:08;18.79;80.64
66594;DHT22;53450;42.584;23.366;2023-06-10T07:35:35;18.91;81.88
66594;DHT22;53450;42.584;23.366;2023-06-10T07:38:01;18.74;81.36
66594;DHT22;53450;42.584;23.366;2023-06-10T07:40:26;18.64;81.36
66594;DHT22;53450;42.584;23.366;2023-06-10T07:42:52;18.79;81.69
66594;DHT22;53450;42.584;23.366;2023-06-10T07:45:18;18.77;81.37
66594;DHT22;53450;42.584;23.366;2023-06-10T07:47:44;18.88;80.99
66594;DHT22;53450;42.584;23.366;2023-06-10T07:50:10;19.18;81.97
66594;DHT22;53450;42.584;23.366;2023-06-10T07:52:35;19.50;80.47
66594;DHT22;53450;42.584;23.366;2023-06-10T07:55:01;19.83;78.25
66594;DHT22;53450;42.584;23.366;2023-06-10T07:57:27;19.66;78.59
66594;DHT22;53450;42.584;23.366;2023-06-10T07:59:52;19.80;79.05
66594;DHT22;53450;42.584;23.366;2023-06-10T08:02:18;19.94;77.96
66594;DHT22;53450;42.584;23.366;2023-06-10T08:04:44;20.26;75.48
66594;DHT22;53450;42.584;23.366;2023-06-10T08:07:09;20.20;70.23
66594;DHT22;53450;42.584;23.366;2023-06-10T08:09:35;20.05;72.17
66594;DHT22;53450;42.584;23.366;2023-06-10T08:12:00;19.87;70.27
66594;DHT22;53450;42.584;23.366;2023-06-10T08:14:26;19.80;69.96
66594;DHT22;53450;42.584;23.366;2023-06-10T08:16:51;19.87;71.51
66594;DHT22;53450;42.584;23.366;2023-06-10T08:19:17;19.62;70.24
66594;DHT22;53450;42.584;23.366;2023-06-10T08:21:42;19.52;73.07
66594;DHT22;53450;42.584;23.366;2023-06-10T08:24:09;19.60;73.84
66594;DHT22;53450;42.584;23.366;2023-06-10T08:26:35;19.52;70.56
66594;DHT22;53450;42.584;23.366;2023-06-10T08:29:01;19.52;71.76
66594;DHT22;53450;42.584;23.366;2023-06-10T08:31:26;19.71;72.77
66594;DHT22;53450;42.584;23.366;2023-06-10T08:33:52;19.98;74.77
66594;DHT22;53450;42.584;23.366;2023-06-10T08:36:17;20.04;73.91
66594;DHT22;53450;42.584;23.366;2023-06-10T08:38:43;20.15;72.30
66594;DHT22;53450;42.584;23.366;2023-06-10T08:41:09;20.44;68.52
66594;DHT22;53450;42.584;23.366;2023-06-10T08:43:45;20.53;67.52
66594;DHT22;53450;42.584;23.366;2023-06-10T08:46:12;20.65;70.58
66594;DHT22;53450;42.584;23.366;2023-06-10T08:48:44;20.68;70.75
66594;DHT22;53450;42.584;23.366;2023-06-10T08:51:10;20.73;66.72
66594;DHT22;53450;42.584;23.366;2023-06-10T08:53:38;20.83;68.61
66594;DHT22;53450;42.584;23.366;2023-06-10T08:56:04;20.84;62.28
66594;DHT22;53450;42.584;23.366;2023-06-10T08:58:32;20.87;62.08
66594;DHT22;53450;42.584;23.366;2023-06-10T09:00:59;20.92;59.85
66594;DHT22;53450;42.584;23.366;2023-06-10T09:03:25;20.79;62.12
66594;DHT22;53450;42.584;23.366;2023-06-10T09:06:18;20.87;67.31
66594;DHT22;53450;42.584;23.366;2023-06-10T09:09:08;21.02;67.21
66594;DHT22;53450;42.584;23.366;2023-06-10T09:11:34;20.97;65.92
66594;DHT22;53450;42.584;23.366;2023-06-10T09:13:59;20.83;66.03
66594;DHT22;53450;42.584;23.366;2023-06-10T09:16:25;20.99;67.25
66594;DHT22;53450;42.584;23.366;2023-06-10T09:18:51;20.89;63.49
66594;DHT22;53450;42.584;23.366;2023-06-10T09:21:23;20.82;63.12
66594;DHT22;53450;42.584;23.366;2023-06-10T09:23:50;20.69;63.11
66594;DHT22;53450;42.584;23.366;2023-06-10T09:26:16;20.65;63.29
66594;DHT22;53450;42.584;23.366;2023-06-10T09:28:44;20.65;62.80
66594;DHT22;53450;42.584;23.366;2023-06-10T09:31:11;20.97;63.58
66594;DHT22;53450;42.584;23.366;2023-06-10T09:33:38;21.23;59.46
66594;DHT22;53450;42.584;23.366;2023-06-10T09:36:07;21.31;56.36
66594;DHT22;53450;42.584;23.366;2023-06-10T09:38:34;21.35;58.64
66594;DHT22;53450;42.584;23.366;2023-06-10T09:41:00;21.21;58.23
66594;DHT22;53450;42.584;23.366;2023-06-10T09:43:45;21.02;60.58
66594;DHT22;53450;42.584;23.366;2023-06-10T09:46:18;21.02;60.29
66594;DHT22;53450;42.584;23.366;2023-06-10T09:48:46;20.87;58.97
66594;DHT22;53450;42.584;23.366;2023-06-10T09:51:12;20.99;58.39
66594;DHT22;53450;42.584;23.366;2023-06-10T09:53:39;21.19;59.08
66594;DHT22;53450;42.584;23.366;2023-06-10T09:56:05;21.14;57.62
66594;DHT22;53450;42.584;23.366;2023-06-10T09:58:39;21.40;59.16
66594;DHT22;53450;42.584;23.366;2023-06-10T10:01:10;21.55;58.31
66594;DHT22;53450;42.584;23.366;2023-06-10T10:03:51;21.68;57.33
66594;DHT22;53450;42.584;23.366;2023-06-10T10:06:19;21.99;57.15
66594;DHT22;53450;42.584;23.366;2023-06-10T10:08:47;22.17;58.27
66594;DHT22;53450;42.584;23.366;2023-06-10T10:11:16;22.35;52.57
66594;DHT22;53450;42.584;23.366;2023-06-10T10:13:41;22.43;52.33
66594;DHT22;53450;42.584;23.366;2023-06-10T10:16:12;22.35;53.72
66594;DHT22;53450;42.584;23.366;2023-06-10T10:18:43;22.49;52.85
66594;DHT22;53450;42.584;23.366;2023-06-10T10:21:43;22.30;54.40
66594;DHT22;53450;42.584;23.366;2023-06-10T10:24:21;22.49;54.27
66594;DHT22;53450;42.584;23.366;2023-06-10T10:26:47;22.41;54.19
66594;DHT22;53450;42.584;23.366;2023-06-10T10:29:20;22.56;55.64
66594;DHT22;53450;42.584;23.366;2023-06-10T10:31:50;22.37;56.64
66594;DHT22;53450;42.584;23.366;2023-06-10T10:34:25;22.61;53.60
66594;DHT22;53450;42.584;23.366;2023-06-10T10:36:52;22.65;53.40
66594;DHT22;53450;42.584;23.366;2023-06-10T10:39:18;22.90;54.30
66594;DHT22;53450;42.584;23.366;2023-06-10T10:41:44;22.84;52.68
66594;DHT22;53450;42.584;23.366;2023-06-10T10:44:11;22.81;55.60
66594;DHT22;53450;42.584;23.366;2023-06-10T10:46:50;23.05;51.92
66594;DHT22;53450;42.584;23.366;2023-06-10T10:49:17;22.99;49.54
66594;DHT22;53450;42.584;23.366;2023-06-10T10:51:59;23.30;52.05
66594;DHT22;53450;42.584;23.366;2023-06-10T10:54:53;23.11;50.57
66594;DHT22;53450;42.584;23.366;2023-06-10T10:57:57;23.18;47.33
66594;DHT22;53450;42.584;23.366;2023-06-10T11:00:36;23.56;49.39
66594;DHT22;53450;42.584;23.366;2023-06-10T11:08:07;23.66;50.43
66594;DHT22;53450;42.584;23.366;2023-06-10T11:10:38;23.80;48.28
66594;DHT22;53450;42.584;23.366;2023-06-10T11:13:13;24.08;49.85
66594;DHT22;53450;42.584;23.366;2023-06-10T11:15:46;24.13;46.51
66594;DHT22;53450;42.584;23.366;2023-06-10T11:18:19;24.07;46.25
66594;DHT22;53450;42.584;23.366;2023-06-10T11:25:51;23.39;48.30
66594;DHT22;53450;42.584;23.366;2023-06-10T11:28:18;23.53;48.19
66594;DHT22;53450;42.584;23.366;2023-06-10T11:30:44;23.78;46.10
66594;DHT22;53450;42.584;23.366;2023-06-10T11:33:16;23.60;48.65
66594;DHT22;53450;42.584;23.366;2023-06-10T11:35:42;23.96;47.94
66594;DHT22;53450;42.584;23.366;2023-06-10T11:38:09;24.22;47.93
66594;DHT22;53450;42.584;23.366;2023-06-10T11:40:36;24.51;47.94
66594;DHT22;53450;42.584;23.366;2023-06-10T11:43:03;24.36;46.98
66594;DHT22;53450;42.584;23.366;2023-06-10T11:45:29;24.65;47.62
66594;DHT22;53450;42.584;23.366;2023-06-10T11:47:58;24.72;47.04
66594;DHT22;53450;42.584;23.366;2023-06-10T11:50:34;24.56;50.49
66594;DHT22;53450;42.584;23.366;2023-06-10T11:53:24;24.20;50.42
66594;DHT22;53450;42.584;23.366;2023-06-10T11:56:23;23.86;49.67
66594;DHT22;53450;42.584;23.366;2023-06-10T11:59:07;23.97;49.66
66594;DHT22;53450;42.584;23.366;2023-06-10T12:01:35;23.28;52.42
66594;DHT22;53450;42.584;23.366;2023-06-10T12:04:08;23.49;52.52
66594;DHT22;53450;42.584;23.366;2023-06-10T12:06:59;23.96;49.60
66594;DHT22;53450;42.584;23.366;2023-06-10T12:09:27;23.88;49.55
66594;DHT22;53450;42.584;23.366;2023-06-10T12:12:04;23.63;47.89
66594;DHT22;53450;42.584;23.366;2023-06-10T12:19:55;23.74;47.16
66594;DHT22;53450;42.584;23.366;2023-06-10T12:22:21;23.90;48.32
66594;DHT22;53450;42.584;23.366;2023-06-10T12:24:59;24.08;48.96
66594;DHT22;53450;42.584;23.366;2023-06-10T12:27:31;24.00;49.85
66594;DHT22;53450;42.584;23.366;2023-06-10T12:29:57;23.83;48.13
66594;DHT22;53450;42.584;23.366;2023-06-10T12:35:04;24.29;48.59
66594;DHT22;53450;42.584;23.366;2023-06-10T12:37:30;24.35;47.62
66594;DHT22;53450;42.584;23.366;2023-06-10T12:40:00;24.59;49.15
66594;DHT22;53450;42.584;23.366;2023-06-10T12:42:26;24.41;50.64
66594;DHT22;53450;42.584;23.366;2023-06-10T12:45:46;24.56;51.03
66594;DHT22;53450;42.584;23.366;2023-06-10T12:48:22;24.03;52.06
66594;DHT22;53450;42.584;23.366;2023-06-10T12:50:56;23.97;53.18
66594;DHT22;53450;42.584;23.366;2023-06-10T12:53:23;23.81;51.97
66594;DHT22;53450;42.584;23.366;2023-06-10T12:55:49;23.92;52.98
66594;DHT22;53450;42.584;23.366;2023-06-10T12:58:41;23.62;51.40
66594;DHT22;53450;42.584;23.366;2023-06-10T13:01:32;23.59;52.68
66594;DHT22;53450;42.584;23.366;2023-06-10T13:03:58;23.59;54.34
66594;DHT22;53450;42.584;23.366;2023-06-10T13:06:24;23.66;54.07
66594;DHT22;53450;42.584;23.366;2023-06-10T13:08:49;23.63;54.00
66594;DHT22;53450;42.584;23.366;2023-06-10T13:11:16;23.20;55.45
66594;DHT22;53450;42.584;23.366;2023-06-10T13:13:42;23.20;55.14
66594;DHT22;53450;42.584;23.366;2023-06-10T13:16:08;22.92;56.30
66594;DHT22;53450;42.584;23.366;2023-06-10T13:18:33;22.78;57.31
66594;DHT22;53450;42.584;23.366;2023-06-10T13:21:05;22.46;58.98
66594;DHT22;53450;42.584;23.366;2023-06-10T13:23:31;22.43;58.70
66594;DHT22;53450;42.584;23.366;2023-06-10T13:25:57;22.61;58.57
66594;DHT22;53450;42.584;23.366;2023-06-10T13:28:23;22.65;58.54
66594;DHT22;53450;42.584;23.366;2023-06-10T13:30:49;22.70;56.77
66594;DHT22;53450;42.584;23.366;2023-06-10T13:33:14;22.63;57.14
66594;DHT22;53450;42.584;23.366;2023-06-10T13:35:40;22.71;58.83
66594;DHT22;53450;42.584;23.366;2023-06-10T13:38:06;22.37;57.53
66594;DHT22;53450;42.584;23.366;2023-06-10T13:40:32;22.20;59.53
66594;DHT22;53450;42.584;23.366;2023-06-10T13:42:58;22.28;59.46
66594;DHT22;53450;42.584;23.366;2023-06-10T13:45:24;21.86;63.34
66594;DHT22;53450;42.584;23.366;2023-06-10T13:47:50;21.11;68.79
66594;DHT22;53450;42.584;23.366;2023-06-10T13:50:16;21.02;73.36
66594;DHT22;53450;42.584;23.366;2023-06-10T13:52:41;20.80;69.97
66594;DHT22;53450;42.584;23.366;2023-06-10T13:55:07;20.28;70.57
66594;DHT22;53450;42.584;23.366;2023-06-10T13:57:33;19.80;72.86
66594;DHT22;53450;42.584;23.366;2023-06-10T13:59:58;19.37;68.13
66594;DHT22;53450;42.584;23.366;2023-06-10T14:02:25;19.09;71.22
66594;DHT22;53450;42.584;23.366;2023-06-10T14:04:50;19.04;72.82
66594;DHT22;53450;42.584;23.366;2023-06-10T14:07:16;18.94;73.07
66594;DHT22;53450;42.584;23.366;2023-06-10T14:09:42;19.01;72.97
66594;DHT22;53450;42.584;23.366;2023-06-10T14:12:11;18.95;73.17
66594;DHT22;53450;42.584;23.366;2023-06-10T14:14:37;18.89;74.44
66594;DHT22;53450;42.584;23.366;2023-06-10T14:17:03;19.01;76.24
66594;DHT22;53450;42.584;23.366;2023-06-10T14:19:30;19.05;75.11
66594;DHT22;53450;42.584;23.366;2023-06-10T14:21:55;19.02;77.90
66594;DHT22;53450;42.584;23.366;2023-06-10T14:24:21;19.12;79.22
66594;DHT22;53450;42.584;23.366;2023-06-10T14:26:46;19.26;79.15
66594;DHT22;53450;42.584;23.366;2023-06-10T14:29:13;19.07;77.68
66594;DHT22;53450;42.584;23.366;2023-06-10T14:32:07;18.95;80.95
66594;DHT22;53450;42.584;23.366;2023-06-10T14:34:58;18.53;81.55
66594;DHT22;53450;42.584;23.366;2023-06-10T14:37:23;18.29;82.44
66594;DHT22;53450;42.584;23.366;2023-06-10T14:39:49;18.06;83.23
66594;DHT22;53450;42.584;23.366;2023-06-10T14:42:15;17.98;83.02
66594;DHT22;53450;42.584;23.366;2023-06-10T14:44:40;18.03;83.24
66594;DHT22;53450;42.584;23.366;2023-06-10T14:47:06;18.08;83.55
66594;DHT22;53450;42.584;23.366;2023-06-10T14:49:31;18.22;83.40
66594;DHT22;53450;42.584;23.366;2023-06-10T14:52:22;18.36;82.16
66594;DHT22;53450;42.584;23.366;2023-06-10T14:55:12;18.75;82.13
66594;DHT22;53450;42.584;23.366;2023-06-10T14:57:42;18.92;80.65
66594;DHT22;53450;42.584;23.366;2023-06-10T15:00:08;18.94;79.98
66594;DHT22;53450;42.584;23.366;2023-06-10T15:02:34;18.85;80.11
66594;DHT22;53450;42.584;23.366;2023-06-10T15:04:59;18.74;81.78
66594;DHT22;53450;42.584;23.366;2023-06-10T15:07:50;18.74;81.29
66594;DHT22;53450;42.584;23.366;2023-06-10T15:10:41;18.65;80.47
66594;DHT22;53450;42.584;23.366;2023-06-10T15:13:06;18.87;79.71
66594;DHT22;53450;42.584;23.366;2023-06-10T15:15:32;18.85;79.98
66594;DHT22;53450;42.584;23.366;2023-06-10T15:17:58;19.08;80.85
66594;DHT22;53450;42.584;23.366;2023-06-10T15:20:23;19.28;80.80
66594;DHT22;53450;42.584;23.366;2023-06-10T15:22:49;19.23;80.84
66594;DHT22;53450;42.584;23.366;2023-06-10T15:25:14;18.97;80.15
66594;DHT22;53450;42.584;23.366;2023-06-10T15:28:05;18.87;79.44
66594;DHT22;53450;42.584;23.366;2023-06-10T15:30:56;18.72;79.57
66594;DHT22;53450;42.584;23.366;2023-06-10T15:33:21;18.94;79.67
66594;DHT22;53450;42.584;23.366;2023-06-10T15:35:47;18.97;78.97
66594;DHT22;53450;42.584;23.366;2023-06-10T15:38:12;19.12;78.72
66594;DHT22;53450;42.584;23.366;2023-06-10T15:40:40;19.08;79.29
66594;DHT22;53450;42.584;23.366;2023-06-10T15:43:06;19.05;79.26
66594;DHT22;53450;42.584;23.366;2023-06-10T15:45:31;19.33;78.96
66594;DHT22;53450;42.584;23.366;2023-06-10T15:47:57;19.57;78.77
66594;DHT22;53450;42.584;23.366;2023-06-10T15:50:23;19.71;78.21
66594;DHT22;53450;42.584;23.366;2023-06-10T15:52:49;20.07;76.99
66594;DHT22;53450;42.584;23.366;2023-06-10T15:55:15;20.42;75.47